createdAt,value
2023-01-25T00:00:23.238Z,29.55
2023-01-25T00:02:49.973Z,24.60
2023-01-25T00:05:16.720Z,25.88
2023-01-25T00:07:43.383Z,27.00
2023-01-25T00:10:10.624Z,31.60
2023-01-25T00:12:37.307Z,28.85
2023-01-25T00:15:04.294Z,24.42
2023-01-25T00:17:30.954Z,30.02
2023-01-25T00:19:57.607Z,29.48
2023-01-25T00:22:24.304Z,33.25
2023-01-25T00:24:51.030Z,36.08
2023-01-25T00:27:17.673Z,31.50
2023-01-25T00:29:44.423Z,28.20
2023-01-25T00:32:11.152Z,32.45
2023-01-25T00:34:46.136Z,28.27
2023-01-25T00:37:22.620Z,30.58
2023-01-25T00:39:49.359Z,31.00
2023-01-25T00:42:17.618Z,32.78
2023-01-25T00:44:45.563Z,29.60
2023-01-25T00:47:13.037Z,30.20
2023-01-25T00:49:41.669Z,32.65
2023-01-25T00:52:09.245Z,31.23
2023-01-25T00:54:36.154Z,34.67
2023-01-25T00:57:03.718Z,30.95
2023-01-25T00:59:30.579Z,28.17
2023-01-25T01:01:57.285Z,36.78
2023-01-25T01:04:27.125Z,27.13
2023-01-25T01:06:54.664Z,30.00
2023-01-25T01:09:22.730Z,28.50
2023-01-25T01:11:52.158Z,30.23
2023-01-25T01:14:19.311Z,33.05
2023-01-25T01:16:46.356Z,31.42
2023-01-25T01:19:13.928Z,29.77
2023-01-25T01:21:40.813Z,33.17
2023-01-25T01:24:08.766Z,29.02
2023-01-25T01:26:35.530Z,30.85
2023-01-25T01:29:02.199Z,29.55
2023-01-25T01:31:29.089Z,30.42
2023-01-25T01:34:22.466Z,31.90
2023-01-25T01:36:49.214Z,30.00
2023-01-25T01:39:16.627Z,30.02
2023-01-25T01:41:43.291Z,32.25
2023-01-25T01:44:18.019Z,36.22
2023-01-25T01:46:54.654Z,40.35
2023-01-25T01:49:27.471Z,34.67
2023-01-25T01:52:05.403Z,36.45
2023-01-25T01:54:41.616Z,34.80
2023-01-25T01:57:25.549Z,35.00
2023-01-25T01:59:59.731Z,33.38
2023-01-25T02:02:27.211Z,33.30
2023-01-25T02:04:59.205Z,39.05
2023-01-25T02:07:34.856Z,35.58
2023-01-25T02:10:04.614Z,34.53
2023-01-25T02:12:32.347Z,42.35
2023-01-25T02:14:59.993Z,37.17
2023-01-25T02:17:34.457Z,31.92
2023-01-25T02:20:09.189Z,37.28
2023-01-25T02:23:13.016Z,37.90
2023-01-25T02:25:41.681Z,37.47
2023-01-25T02:28:14.487Z,36.40
2023-01-25T02:30:42.855Z,38.90
2023-01-25T02:33:09.779Z,34.95
2023-01-25T02:35:48.693Z,33.17
2023-01-25T02:38:19.250Z,36.35
2023-01-25T02:41:00.464Z,33.35
2023-01-25T02:43:32.394Z,41.67
2023-01-25T02:46:28.363Z,36.65
2023-01-25T02:48:56.094Z,35.15
2023-01-25T02:51:25.319Z,34.15
2023-01-25T02:53:52.985Z,40.10
2023-01-25T02:56:21.339Z,34.63
2023-01-25T02:58:48.476Z,37.45
2023-01-25T03:01:16.693Z,40.75
2023-01-25T03:03:43.461Z,36.13
2023-01-25T03:06:10.878Z,31.23
2023-01-25T03:08:37.598Z,38.63
2023-01-25T03:11:06.544Z,39.10
2023-01-25T03:13:35.748Z,46.97
2023-01-25T03:16:05.906Z,45.03
2023-01-25T03:18:34.120Z,50.75
2023-01-25T03:21:08.351Z,41.55
2023-01-25T03:23:35.921Z,43.80
2023-01-25T03:26:10.668Z,41.60
2023-01-25T03:28:42.160Z,42.80
2023-01-25T03:31:11.584Z,50.80
2023-01-25T03:33:39.328Z,41.88
2023-01-25T03:36:07.026Z,49.58
2023-01-25T03:38:34.624Z,48.47
2023-01-25T03:41:01.770Z,47.20
2023-01-25T03:43:29.443Z,44.60
2023-01-25T03:45:58.703Z,41.53
2023-01-25T03:48:26.751Z,40.97
2023-01-25T03:50:56.434Z,44.05
2023-01-25T03:53:31.007Z,47.08
2023-01-25T03:56:10.083Z,44.65
2023-01-25T03:58:39.337Z,44.35
2023-01-25T04:01:08.219Z,43.35
2023-01-25T04:03:34.988Z,49.78
2023-01-25T04:06:02.827Z,43.85
2023-01-25T04:08:30.942Z,41.60
2023-01-25T04:11:04.801Z,46.53
2023-01-25T04:13:34.985Z,40.20
2023-01-25T04:16:02.863Z,41.40
2023-01-25T04:18:59.455Z,41.17
2023-01-25T04:21:27.848Z,36.60
2023-01-25T04:23:54.570Z,42.08
2023-01-25T04:26:21.495Z,40.92
2023-01-25T04:28:53.701Z,47.58
2023-01-25T04:31:20.879Z,46.20
2023-01-25T04:33:50.551Z,44.78
2023-01-25T04:36:19.072Z,45.50
2023-01-25T04:38:46.669Z,44.42
2023-01-25T04:41:13.753Z,45.70
2023-01-25T04:43:41.931Z,43.63
2023-01-25T04:46:10.422Z,44.25
2023-01-25T04:48:37.635Z,43.60
2023-01-25T04:51:06.497Z,38.83
2023-01-25T04:53:34.379Z,36.72
2023-01-25T04:56:03.441Z,41.13
2023-01-25T04:58:34.796Z,49.40
2023-01-25T05:01:02.728Z,41.45
2023-01-25T05:03:29.861Z,38.65
2023-01-25T05:05:57.668Z,38.83
2023-01-25T05:08:26.727Z,40.90
2023-01-25T05:10:58.365Z,39.90
2023-01-25T05:13:28.021Z,37.80
2023-01-25T05:16:08.977Z,41.92
2023-01-25T05:18:47.992Z,45.40
2023-01-25T05:21:39.569Z,47.08
2023-01-25T05:24:07.840Z,40.30
2023-01-25T05:26:53.511Z,40.13
2023-01-25T05:29:21.103Z,60.90
2023-01-25T05:31:56.962Z,65.85
2023-01-25T05:34:24.368Z,40.30
2023-01-25T05:36:51.121Z,44.88
2023-01-25T05:39:18.225Z,74.55
2023-01-25T05:41:47.339Z,74.18
2023-01-25T05:44:14.456Z,52.92
2023-01-25T05:46:46.014Z,54.00
2023-01-25T05:49:12.763Z,108.97
2023-01-25T05:51:40.507Z,36.30
2023-01-25T05:54:09.412Z,54.88
2023-01-25T05:56:36.160Z,45.83
2023-01-25T05:59:02.972Z,48.03
2023-01-25T06:01:30.095Z,71.07
2023-01-25T06:03:58.352Z,72.65
2023-01-25T06:06:25.823Z,51.28
2023-01-25T06:08:52.990Z,44.75
2023-01-25T06:11:22.349Z,43.90
2023-01-25T06:13:51.188Z,71.82
2023-01-25T06:16:19.159Z,46.90
2023-01-25T06:19:01.429Z,50.42
2023-01-25T06:22:00.515Z,44.92
2023-01-25T06:24:27.205Z,112.10
2023-01-25T06:26:53.915Z,57.88
2023-01-25T06:29:20.548Z,51.58
2023-01-25T06:31:47.242Z,45.65
2023-01-25T06:34:14.412Z,46.97
2023-01-25T06:36:41.069Z,60.42
2023-01-25T06:39:07.804Z,157.93
2023-01-25T06:41:35.084Z,40.45
2023-01-25T06:44:01.776Z,58.15
2023-01-25T06:46:31.455Z,60.55
2023-01-25T06:48:58.206Z,61.90
2023-01-25T06:51:24.834Z,96.57
2023-01-25T06:53:51.515Z,58.47
2023-01-25T06:56:22.563Z,46.53
2023-01-25T06:58:50.415Z,38.63
2023-01-25T07:01:22.761Z,103.05
2023-01-25T07:03:55.071Z,66.30
2023-01-25T07:06:22.693Z,57.42
2023-01-25T07:08:49.643Z,85.75
2023-01-25T07:11:18.891Z,89.30
2023-01-25T07:13:46.843Z,70.18
2023-01-25T07:16:16.197Z,64.72
2023-01-25T07:18:43.117Z,60.70
2023-01-25T07:21:14.419Z,58.55
2023-01-25T07:23:41.959Z,70.70
2023-01-25T07:26:20.585Z,44.28
2023-01-25T07:28:48.183Z,177.95
2023-01-25T07:31:16.255Z,207.43
2023-01-25T07:33:43.014Z,158.48
2023-01-25T07:36:10.922Z,106.90
2023-01-25T07:38:37.855Z,81.97
2023-01-25T07:41:04.953Z,72.63
2023-01-25T07:43:32.321Z,65.95
2023-01-25T07:46:07.528Z,50.25
2023-01-25T07:48:34.574Z,65.38
2023-01-25T07:51:12.160Z,100.35
2023-01-25T07:53:43.612Z,71.07
2023-01-25T07:56:12.006Z,78.43
2023-01-25T07:58:39.413Z,101.45
2023-01-25T08:01:11.268Z,136.30
2023-01-25T08:03:38.167Z,101.95
2023-01-25T08:06:06.593Z,95.30
2023-01-25T08:08:38.515Z,56.17
2023-01-25T08:11:17.761Z,99.28
2023-01-25T08:13:46.213Z,103.68
2023-01-25T08:16:14.338Z,70.63
2023-01-25T08:18:41.099Z,139.50
2023-01-25T08:21:08.170Z,69.18
2023-01-25T08:23:35.267Z,58.13
2023-01-25T08:26:10.464Z,46.03
2023-01-25T08:28:37.315Z,51.83
2023-01-25T08:31:14.358Z,61.15
2023-01-25T08:33:42.387Z,108.07
2023-01-25T08:36:10.679Z,91.63
2023-01-25T08:38:37.743Z,69.97
2023-01-25T08:41:06.266Z,55.85
2023-01-25T08:43:33.522Z,49.08
2023-01-25T08:46:00.334Z,102.03
2023-01-25T08:48:27.038Z,92.03
2023-01-25T08:50:53.706Z,69.60
2023-01-25T08:53:20.805Z,101.22
2023-01-25T08:55:47.470Z,139.20
2023-01-25T08:58:16.104Z,97.75
2023-01-25T09:00:44.056Z,83.15
2023-01-25T09:03:11.683Z,42.25
2023-01-25T09:05:39.254Z,56.30
2023-01-25T09:08:08.912Z,61.72
2023-01-25T09:10:36.049Z,45.63
2023-01-25T09:13:02.717Z,47.20
2023-01-25T09:15:29.642Z,43.30
2023-01-25T09:17:57.288Z,78.70
2023-01-25T09:20:24.282Z,57.20
2023-01-25T09:22:51.035Z,47.53
2023-01-25T09:25:18.267Z,48.42
2023-01-25T09:27:45.224Z,55.67
2023-01-25T09:30:18.162Z,61.92
2023-01-25T09:32:50.472Z,81.60
2023-01-25T09:35:17.703Z,63.13
2023-01-25T09:37:44.384Z,66.35
2023-01-25T09:40:28.265Z,38.83
2023-01-25T09:43:11.583Z,46.95
2023-01-25T09:45:38.416Z,44.85
2023-01-25T09:48:25.678Z,45.65
2023-01-25T09:50:58.226Z,63.45
2023-01-25T09:53:31.259Z,55.97
2023-01-25T09:56:11.512Z,44.83
2023-01-25T09:58:46.452Z,72.55
2023-01-25T10:01:32.831Z,44.42
2023-01-25T10:04:06.977Z,38.13
2023-01-25T10:06:46.073Z,41.95
2023-01-25T10:09:23.464Z,48.60
2023-01-25T10:11:50.199Z,73.47
2023-01-25T10:14:19.595Z,37.67
2023-01-25T10:16:46.297Z,33.80
2023-01-25T10:19:20.759Z,37.17
2023-01-25T10:21:54.787Z,40.97
2023-01-25T10:24:44.265Z,37.17
2023-01-25T10:27:18.467Z,39.65
2023-01-25T10:29:46.418Z,32.45
2023-01-25T10:32:35.766Z,33.63
2023-01-25T10:35:34.810Z,36.60
2023-01-25T10:38:09.988Z,30.77
2023-01-25T10:40:45.734Z,29.17
2023-01-25T10:43:17.891Z,39.50
2023-01-25T10:45:44.640Z,33.33
2023-01-25T10:48:17.448Z,35.42
2023-01-25T10:50:48.664Z,27.73
2023-01-25T10:53:30.277Z,25.45
2023-01-25T10:56:11.188Z,29.88
2023-01-25T10:58:42.176Z,29.92
2023-01-25T11:01:31.812Z,31.02
2023-01-25T11:03:59.917Z,30.70
2023-01-25T11:06:46.617Z,35.80
2023-01-25T11:09:31.097Z,34.03
2023-01-25T11:12:00.421Z,32.60
2023-01-25T11:14:30.363Z,35.08
2023-01-25T11:16:59.136Z,27.30
2023-01-25T11:19:33.930Z,29.65
2023-01-25T11:22:04.683Z,36.60
2023-01-25T11:24:34.382Z,36.28
2023-01-25T11:27:24.590Z,31.50
2023-01-25T11:30:12.647Z,40.28
2023-01-25T11:32:40.816Z,36.70
2023-01-25T11:35:23.398Z,33.35
2023-01-25T11:38:08.951Z,29.05
2023-01-25T11:40:41.643Z,28.85
2023-01-25T11:43:33.087Z,32.50
2023-01-25T11:46:43.729Z,46.22
2023-01-25T11:49:34.401Z,38.30
2023-01-25T11:52:30.857Z,80.78
2023-01-25T11:55:14.451Z,76.25
2023-01-25T11:58:15.707Z,36.72
2023-01-25T12:00:51.265Z,67.07
2023-01-25T12:03:44.530Z,40.30
2023-01-25T12:06:36.811Z,57.10
2023-01-25T12:09:16.155Z,42.05
2023-01-25T12:11:52.481Z,50.50
2023-01-25T12:14:35.607Z,35.33
2023-01-25T12:17:47.099Z,41.40
2023-01-25T12:20:26.200Z,37.30
2023-01-25T12:23:33.998Z,35.65
2023-01-25T12:26:42.556Z,33.67
2023-01-25T12:29:18.630Z,32.45
2023-01-25T12:31:55.330Z,36.47
2023-01-25T12:34:33.099Z,33.45
2023-01-25T12:37:10.481Z,28.00
2023-01-25T12:39:51.179Z,50.25
2023-01-25T12:42:26.775Z,61.92
2023-01-25T12:45:03.866Z,64.63
2023-01-25T12:47:37.715Z,32.53
2023-01-25T12:50:43.365Z,49.15
2023-01-25T12:53:31.173Z,48.90
2023-01-25T12:55:58.790Z,50.70
2023-01-25T12:58:38.419Z,47.05
2023-01-25T13:01:23.229Z,31.00
2023-01-25T13:04:13.817Z,50.13
2023-01-25T13:06:57.131Z,37.67
2023-01-25T13:09:40.480Z,34.17
2023-01-25T13:12:11.739Z,35.55
2023-01-25T13:14:40.280Z,34.38
2023-01-25T13:17:40.603Z,30.50
2023-01-25T13:20:48.116Z,33.20
2023-01-25T13:23:34.727Z,33.08
2023-01-25T13:26:37.253Z,78.82
2023-01-25T13:29:04.055Z,72.18
2023-01-25T13:31:51.531Z,36.67
2023-01-25T13:34:42.429Z,39.20
2023-01-25T13:37:31.049Z,54.40
2023-01-25T13:40:09.696Z,38.53
2023-01-25T13:42:39.417Z,34.53
2023-01-25T13:45:18.693Z,34.78
2023-01-25T13:48:04.154Z,42.42
2023-01-25T13:50:34.604Z,34.55
2023-01-25T13:53:17.728Z,32.08
2023-01-25T13:55:58.024Z,33.00
2023-01-25T13:58:28.027Z,34.03
2023-01-25T14:01:08.260Z,48.35
2023-01-25T14:03:44.539Z,56.50
2023-01-25T14:06:17.629Z,44.55
2023-01-25T14:08:46.469Z,71.78
2023-01-25T14:11:25.807Z,41.35
2023-01-25T14:14:20.106Z,58.10
2023-01-25T14:16:47.143Z,67.30
2023-01-25T14:19:24.912Z,73.82
2023-01-25T14:22:21.369Z,77.78
2023-01-25T14:25:16.997Z,74.75
2023-01-25T14:27:59.794Z,114.70
2023-01-25T14:30:32.677Z,47.95
2023-01-25T14:33:02.351Z,66.72
2023-01-25T14:35:42.602Z,61.88
2023-01-25T14:38:30.115Z,112.57
2023-01-25T14:41:14.394Z,63.83
2023-01-25T14:43:53.472Z,70.78
2023-01-25T14:46:26.189Z,65.35
2023-01-25T14:49:09.638Z,49.38
2023-01-25T14:51:49.353Z,110.88
2023-01-25T14:54:34.659Z,51.22
2023-01-25T14:57:04.320Z,53.47
2023-01-25T14:59:34.199Z,65.10
2023-01-25T15:02:16.113Z,119.05
2023-01-25T15:05:16.172Z,98.43
2023-01-25T15:07:57.418Z,138.43
2023-01-25T15:10:32.740Z,100.15
2023-01-25T15:13:13.595Z,107.90
2023-01-25T15:16:10.487Z,135.07
2023-01-25T15:18:51.393Z,139.98
2023-01-25T15:21:29.595Z,283.95
2023-01-25T15:23:58.094Z,179.38
2023-01-25T15:26:27.070Z,143.35
2023-01-25T15:28:55.974Z,93.07
2023-01-25T15:31:30.379Z,210.48
2023-01-25T15:33:58.023Z,22.52
2023-01-25T15:36:24.907Z,332.88
2023-01-25T15:38:51.756Z,154.48
2023-01-25T15:41:18.699Z,200.82
2023-01-25T15:43:49.539Z,248.38
2023-01-25T15:46:23.586Z,135.60
2023-01-25T15:48:51.389Z,381.58
2023-01-25T15:51:19.019Z,343.92
2023-01-25T15:53:46.739Z,201.95
2023-01-25T15:56:16.714Z,120.40
2023-01-25T15:58:47.695Z,314.63
2023-01-25T16:01:14.472Z,304.27
2023-01-25T16:03:41.614Z,211.48
2023-01-25T16:06:30.248Z,209.80
2023-01-25T16:08:58.708Z,196.45
2023-01-25T16:11:26.281Z,147.93
2023-01-25T16:13:52.933Z,244.45
2023-01-25T16:16:23.190Z,146.05
2023-01-25T16:18:50.346Z,247.07
2023-01-25T16:21:18.498Z,202.27
2023-01-25T16:23:45.218Z,196.35
2023-01-25T16:26:20.741Z,270.63
2023-01-25T16:28:47.438Z,241.40
2023-01-25T16:31:30.897Z,218.32
2023-01-25T16:33:59.146Z,350.45
2023-01-25T16:36:25.863Z,262.98
2023-01-25T16:38:52.643Z,140.32
2023-01-25T16:41:19.280Z,244.45
2023-01-25T16:43:47.863Z,135.75
2023-01-25T16:46:20.643Z,196.93
2023-01-25T16:48:49.376Z,147.60
2023-01-25T16:51:28.695Z,253.02
2023-01-25T16:53:57.987Z,158.35
2023-01-25T16:56:33.393Z,141.43
2023-01-25T16:59:05.026Z,226.23
2023-01-25T17:01:32.497Z,281.23
2023-01-25T17:04:00.622Z,282.48
2023-01-25T17:06:30.109Z,216.60
2023-01-25T17:09:00.300Z,160.55
2023-01-25T17:11:27.754Z,152.70
2023-01-25T17:13:56.818Z,178.52
2023-01-25T17:16:26.420Z,152.85
2023-01-25T17:19:03.414Z,190.18
2023-01-25T17:21:30.464Z,205.82
2023-01-25T17:24:00.245Z,144.55
2023-01-25T17:26:29.059Z,173.75
2023-01-25T17:28:57.224Z,105.55
2023-01-25T17:31:26.701Z,108.95
2023-01-25T17:33:54.783Z,207.00
2023-01-25T17:36:21.585Z,241.77
2023-01-25T17:38:48.350Z,228.95
2023-01-25T17:41:17.017Z,280.58
2023-01-25T17:43:43.826Z,209.55
2023-01-25T17:46:12.439Z,146.57
2023-01-25T17:48:39.864Z,149.13
2023-01-25T17:51:07.076Z,154.93
2023-01-25T17:53:34.003Z,185.95
2023-01-25T17:56:04.723Z,143.35
2023-01-25T17:58:34.159Z,113.75
2023-01-25T18:01:13.027Z,238.48
2023-01-25T18:03:41.061Z,190.20
2023-01-25T18:06:09.021Z,159.82
2023-01-25T18:08:44.106Z,109.50
2023-01-25T18:11:15.294Z,143.68
2023-01-25T18:13:43.867Z,128.43
2023-01-25T18:16:11.517Z,141.98
2023-01-25T18:18:39.503Z,228.05
2023-01-25T18:21:24.063Z,137.55
2023-01-25T18:23:56.971Z,142.73
2023-01-25T18:26:27.089Z,162.02
2023-01-25T18:28:57.610Z,182.40
2023-01-25T18:31:24.619Z,161.00
2023-01-25T18:33:51.346Z,141.20
2023-01-25T18:36:20.388Z,163.77
2023-01-25T18:38:47.340Z,188.07
2023-01-25T18:41:14.053Z,186.07
2023-01-25T18:43:40.710Z,184.10
2023-01-25T18:46:07.764Z,151.82
2023-01-25T18:48:36.174Z,160.10
2023-01-25T18:51:11.288Z,131.32
2023-01-25T18:53:40.040Z,118.50
2023-01-25T18:56:10.622Z,137.07
2023-01-25T18:58:38.500Z,123.40
2023-01-25T19:01:15.011Z,130.15
2023-01-25T19:03:45.995Z,132.75
2023-01-25T19:06:13.214Z,148.50
2023-01-25T19:08:44.441Z,135.23
2023-01-25T19:11:17.341Z,179.18
2023-01-25T19:13:44.464Z,213.07
2023-01-25T19:16:12.680Z,152.95
2023-01-25T19:18:45.790Z,140.30
2023-01-25T19:21:15.003Z,149.65
2023-01-25T19:23:42.024Z,138.98
2023-01-25T19:26:15.520Z,139.63
2023-01-25T19:28:43.237Z,137.55
2023-01-25T19:31:16.150Z,222.45
2023-01-25T19:33:44.222Z,172.63
2023-01-25T19:36:18.058Z,120.82
2023-01-25T19:38:46.398Z,164.65
2023-01-25T19:41:18.671Z,176.43
2023-01-25T19:43:45.748Z,136.18
2023-01-25T19:46:22.612Z,308.73
2023-01-25T19:48:50.782Z,204.02
2023-01-25T19:51:29.838Z,159.18
2023-01-25T19:54:17.462Z,190.00
2023-01-25T19:56:49.425Z,197.60
2023-01-25T19:59:17.661Z,133.27
2023-01-25T20:01:46.058Z,121.95
2023-01-25T20:04:15.920Z,111.68
2023-01-25T20:06:43.351Z,140.10
2023-01-25T20:09:14.161Z,120.53
2023-01-25T20:11:41.401Z,127.60
2023-01-25T20:14:10.419Z,121.10
2023-01-25T20:16:37.132Z,89.78
2023-01-25T20:19:04.650Z,102.95
2023-01-25T20:21:33.407Z,92.03
2023-01-25T20:24:05.834Z,91.68
2023-01-25T20:26:37.256Z,75.10
2023-01-25T20:29:04.657Z,105.90
2023-01-25T20:31:42.798Z,117.65
2023-01-25T20:34:17.887Z,134.70
2023-01-25T20:36:44.608Z,163.55
2023-01-25T20:39:13.789Z,105.47
2023-01-25T20:41:40.787Z,92.97
2023-01-25T20:44:08.741Z,94.80
2023-01-25T20:46:40.259Z,88.35
2023-01-25T20:49:10.166Z,86.57
2023-01-25T20:51:37.056Z,91.97
2023-01-25T20:54:03.840Z,81.32
2023-01-25T20:56:31.674Z,86.10
2023-01-25T20:58:58.495Z,96.55
2023-01-25T21:01:33.220Z,137.32
2023-01-25T21:03:59.834Z,118.25
2023-01-25T21:06:27.351Z,124.65
2023-01-25T21:08:54.853Z,87.28
2023-01-25T21:11:23.139Z,176.20
2023-01-25T21:13:49.855Z,101.63
2023-01-25T21:16:19.092Z,92.18
2023-01-25T21:18:48.384Z,85.85
2023-01-25T21:21:23.627Z,89.10
2023-01-25T21:23:51.026Z,102.20
2023-01-25T21:26:18.932Z,97.60
2023-01-25T21:28:46.719Z,144.68
2023-01-25T21:31:15.354Z,101.70
2023-01-25T21:33:42.316Z,79.95
2023-01-25T21:36:11.519Z,155.35
2023-01-25T21:38:39.671Z,93.20
2023-01-25T21:41:09.627Z,87.15
2023-01-25T21:43:55.203Z,151.18
2023-01-25T21:46:26.389Z,199.18
2023-01-25T21:49:16.626Z,81.18
2023-01-25T21:51:51.834Z,190.88
2023-01-25T21:54:23.838Z,96.68
2023-01-25T21:56:52.438Z,85.47
2023-01-25T21:59:20.052Z,204.05
2023-01-25T22:01:47.550Z,111.25
2023-01-25T22:04:15.648Z,109.20
2023-01-25T22:06:42.539Z,111.03
2023-01-25T22:09:09.422Z,149.00
2023-01-25T22:11:36.590Z,113.40
2023-01-25T22:14:03.499Z,95.22
2023-01-25T22:16:30.635Z,79.35
2023-01-25T22:18:57.851Z,74.68
2023-01-25T22:21:28.592Z,97.35
2023-01-25T22:23:55.263Z,129.73
2023-01-25T22:26:24.435Z,112.97
2023-01-25T22:28:53.669Z,76.68
2023-01-25T22:31:25.617Z,147.50
2023-01-25T22:33:53.379Z,91.15
2023-01-25T22:36:22.583Z,114.38
2023-01-25T22:38:50.267Z,61.15
2023-01-25T22:41:23.096Z,73.20
2023-01-25T22:43:50.315Z,107.05
2023-01-25T22:46:28.055Z,74.30
2023-01-25T22:48:55.004Z,122.18
2023-01-25T22:51:25.513Z,71.50
2023-01-25T22:53:52.839Z,74.57
2023-01-25T22:56:22.577Z,60.13
2023-01-25T22:58:50.104Z,61.25
2023-01-25T23:01:28.663Z,61.65
2023-01-25T23:03:56.019Z,70.00
2023-01-25T23:06:27.885Z,64.25
2023-01-25T23:08:56.213Z,49.90
2023-01-25T23:11:24.583Z,47.78
2023-01-25T23:14:11.532Z,54.53
2023-01-25T23:16:39.065Z,63.00
2023-01-25T23:19:05.759Z,64.07
2023-01-25T23:21:32.552Z,79.25
2023-01-25T23:24:00.808Z,55.88
2023-01-25T23:26:29.574Z,77.28
2023-01-25T23:28:57.910Z,74.32
2023-01-25T23:31:25.968Z,79.47
2023-01-25T23:33:58.942Z,54.33
2023-01-25T23:36:28.354Z,60.95
2023-01-25T23:38:55.835Z,53.90
2023-01-25T23:41:23.954Z,58.80
2023-01-25T23:43:50.733Z,50.33
2023-01-25T23:46:17.875Z,53.92
2023-01-25T23:48:45.973Z,59.90
2023-01-25T23:51:14.789Z,60.13
2023-01-25T23:53:41.832Z,56.53
2023-01-25T23:56:20.171Z,62.13
2023-01-25T23:58:47.940Z,50.90
